sensor_id;sensor_type;location;lat;lon;timestamp;P1;durP1;ratioP1;P2;durP2;ratioP2
10511;SDS011;5304;48.604;2.096;2023-06-14T00:00:44;9.37;;;6.70;;
10511;SDS011;5304;48.604;2.096;2023-06-14T00:03:30;9.07;;;6.23;;
10511;SDS011;5304;48.604;2.096;2023-06-14T00:06:16;7.90;;;6.23;;
10511;SDS011;5304;48.604;2.096;2023-06-14T00:09:00;9.60;;;6.33;;
10511;SDS011;5304;48.604;2.096;2023-06-14T00:11:45;8.80;;;6.50;;
10511;SDS011;5304;48.604;2.096;2023-06-14T00:14:30;7.93;;;6.53;;
10511;SDS011;5304;48.604;2.096;2023-06-14T00:17:14;7.33;;;6.57;;
10511;SDS011;5304;48.604;2.096;2023-06-14T00:20:02;11.93;;;6.80;;
10511;SDS011;5304;48.604;2.096;2023-06-14T00:22:50;8.97;;;6.40;;
10511;SDS011;5304;48.604;2.096;2023-06-14T00:25:36;10.47;;;6.70;;
10511;SDS011;5304;48.604;2.096;2023-06-14T00:28:20;7.27;;;6.53;;
10511;SDS011;5304;48.604;2.096;2023-06-14T00:31:05;7.27;;;6.20;;
10511;SDS011;5304;48.604;2.096;2023-06-14T00:33:49;8.03;;;6.90;;
10511;SDS011;5304;48.604;2.096;2023-06-14T00:36:34;8.03;;;6.77;;
10511;SDS011;5304;48.604;2.096;2023-06-14T00:39:18;8.13;;;6.70;;
10511;SDS011;5304;48.604;2.096;2023-06-14T00:42:03;7.60;;;6.77;;
10511;SDS011;5304;48.604;2.096;2023-06-14T00:44:49;8.27;;;6.87;;
10511;SDS011;5304;48.604;2.096;2023-06-14T00:47:34;8.13;;;6.87;;
10511;SDS011;5304;48.604;2.096;2023-06-14T00:50:21;7.80;;;7.00;;
10511;SDS011;5304;48.604;2.096;2023-06-14T00:53:07;8.33;;;6.90;;
10511;SDS011;5304;48.604;2.096;2023-06-14T00:55:51;7.80;;;6.47;;
10511;SDS011;5304;48.604;2.096;2023-06-14T00:58:35;7.23;;;6.53;;
10511;SDS011;5304;48.604;2.096;2023-06-14T01:01:20;9.47;;;6.37;;
10511;SDS011;5304;48.604;2.096;2023-06-14T01:04:04;7.93;;;6.73;;
10511;SDS011;5304;48.604;2.096;2023-06-14T01:07:04;8.33;;;6.50;;
10511;SDS011;5304;48.604;2.096;2023-06-14T01:15:54;8.43;;;6.90;;
10511;SDS011;5304;48.604;2.096;2023-06-14T01:18:39;7.27;;;6.50;;
10511;SDS011;5304;48.604;2.096;2023-06-14T01:21:31;8.97;;;6.90;;
10511;SDS011;5304;48.604;2.096;2023-06-14T01:24:20;8.50;;;7.27;;
10511;SDS011;5304;48.604;2.096;2023-06-14T01:27:08;8.03;;;7.13;;
10511;SDS011;5304;48.604;2.096;2023-06-14T01:29:53;8.03;;;6.73;;
10511;SDS011;5304;48.604;2.096;2023-06-14T01:32:40;9.27;;;6.77;;
10511;SDS011;5304;48.604;2.096;2023-06-14T01:35:24;9.33;;;6.73;;
10511;SDS011;5304;48.604;2.096;2023-06-14T01:38:09;8.57;;;7.20;;
10511;SDS011;5304;48.604;2.096;2023-06-14T01:40:55;7.80;;;7.00;;
10511;SDS011;5304;48.604;2.096;2023-06-14T01:43:42;8.67;;;7.07;;
10511;SDS011;5304;48.604;2.096;2023-06-14T01:46:27;8.23;;;7.30;;
10511;SDS011;5304;48.604;2.096;2023-06-14T01:49:11;8.13;;;7.17;;
10511;SDS011;5304;48.604;2.096;2023-06-14T01:51:56;8.60;;;7.70;;
10511;SDS011;5304;48.604;2.096;2023-06-14T01:54:41;7.77;;;6.90;;
10511;SDS011;5304;48.604;2.096;2023-06-14T01:57:26;8.10;;;7.23;;
10511;SDS011;5304;48.604;2.096;2023-06-14T02:00:11;7.93;;;6.87;;
10511;SDS011;5304;48.604;2.096;2023-06-14T02:02:56;7.80;;;7.00;;
10511;SDS011;5304;48.604;2.096;2023-06-14T02:05:40;8.80;;;7.37;;
10511;SDS011;5304;48.604;2.096;2023-06-14T02:08:25;8.20;;;7.07;;
10511;SDS011;5304;48.604;2.096;2023-06-14T02:11:09;8.20;;;7.17;;
10511;SDS011;5304;48.604;2.096;2023-06-14T02:13:54;9.73;;;7.50;;
10511;SDS011;5304;48.604;2.096;2023-06-14T02:16:39;8.77;;;7.87;;
10511;SDS011;5304;48.604;2.096;2023-06-14T02:19:24;7.97;;;7.17;;
10511;SDS011;5304;48.604;2.096;2023-06-14T02:22:08;9.57;;;7.63;;
10511;SDS011;5304;48.604;2.096;2023-06-14T02:24:53;8.90;;;7.93;;
10511;SDS011;5304;48.604;2.096;2023-06-14T02:27:37;9.53;;;7.80;;
10511;SDS011;5304;48.604;2.096;2023-06-14T02:30:22;9.80;;;8.30;;
10511;SDS011;5304;48.604;2.096;2023-06-14T02:33:07;9.07;;;8.13;;
10511;SDS011;5304;48.604;2.096;2023-06-14T02:35:52;8.97;;;8.07;;
10511;SDS011;5304;48.604;2.096;2023-06-14T02:38:36;9.27;;;7.20;;
10511;SDS011;5304;48.604;2.096;2023-06-14T02:41:21;8.90;;;8.00;;
10511;SDS011;5304;48.604;2.096;2023-06-14T02:44:05;10.33;;;7.60;;
10511;SDS011;5304;48.604;2.096;2023-06-14T02:46:50;9.63;;;8.40;;
10511;SDS011;5304;48.604;2.096;2023-06-14T02:49:35;10.70;;;8.07;;
10511;SDS011;5304;48.604;2.096;2023-06-14T02:52:19;10.73;;;7.73;;
10511;SDS011;5304;48.604;2.096;2023-06-14T02:55:04;8.83;;;7.53;;
10511;SDS011;5304;48.604;2.096;2023-06-14T02:57:49;11.70;;;8.80;;
10511;SDS011;5304;48.604;2.096;2023-06-14T03:00:34;11.53;;;8.03;;
10511;SDS011;5304;48.604;2.096;2023-06-14T03:03:19;10.03;;;8.00;;
10511;SDS011;5304;48.604;2.096;2023-06-14T03:06:05;9.87;;;8.50;;
10511;SDS011;5304;48.604;2.096;2023-06-14T03:08:49;13.20;;;8.83;;
10511;SDS011;5304;48.604;2.096;2023-06-14T03:11:35;11.13;;;8.20;;
10511;SDS011;5304;48.604;2.096;2023-06-14T03:14:19;9.00;;;7.90;;
10511;SDS011;5304;48.604;2.096;2023-06-14T03:17:05;10.77;;;8.93;;
10511;SDS011;5304;48.604;2.096;2023-06-14T03:19:49;8.73;;;7.77;;
10511;SDS011;5304;48.604;2.096;2023-06-14T03:22:33;9.70;;;7.93;;
10511;SDS011;5304;48.604;2.096;2023-06-14T03:25:18;10.07;;;7.77;;
10511;SDS011;5304;48.604;2.096;2023-06-14T03:28:02;9.23;;;8.30;;
10511;SDS011;5304;48.604;2.096;2023-06-14T03:30:47;9.47;;;8.47;;
10511;SDS011;5304;48.604;2.096;2023-06-14T03:33:31;10.10;;;8.63;;
10511;SDS011;5304;48.604;2.096;2023-06-14T03:36:16;11.30;;;8.37;;
10511;SDS011;5304;48.604;2.096;2023-06-14T03:39:01;10.80;;;8.70;;
10511;SDS011;5304;48.604;2.096;2023-06-14T03:41:45;10.90;;;8.63;;
10511;SDS011;5304;48.604;2.096;2023-06-14T03:44:30;10.77;;;8.90;;
10511;SDS011;5304;48.604;2.096;2023-06-14T03:47:15;9.93;;;8.53;;
10511;SDS011;5304;48.604;2.096;2023-06-14T03:49:59;10.53;;;8.60;;
10511;SDS011;5304;48.604;2.096;2023-06-14T03:52:44;8.83;;;7.93;;
10511;SDS011;5304;48.604;2.096;2023-06-14T03:55:32;9.97;;;7.90;;
10511;SDS011;5304;48.604;2.096;2023-06-14T03:58:16;10.37;;;8.53;;
10511;SDS011;5304;48.604;2.096;2023-06-14T04:01:01;11.37;;;9.10;;
10511;SDS011;5304;48.604;2.096;2023-06-14T04:03:46;10.07;;;8.40;;
10511;SDS011;5304;48.604;2.096;2023-06-14T04:06:30;10.37;;;8.13;;
10511;SDS011;5304;48.604;2.096;2023-06-14T04:09:18;9.03;;;8.10;;
10511;SDS011;5304;48.604;2.096;2023-06-14T04:12:02;12.80;;;8.80;;
10511;SDS011;5304;48.604;2.096;2023-06-14T04:14:47;10.27;;;8.40;;
10511;SDS011;5304;48.604;2.096;2023-06-14T04:17:32;12.87;;;8.70;;
10511;SDS011;5304;48.604;2.096;2023-06-14T04:20:16;9.97;;;8.27;;
10511;SDS011;5304;48.604;2.096;2023-06-14T04:23:18;10.63;;;8.60;;
10511;SDS011;5304;48.604;2.096;2023-06-14T04:26:03;10.07;;;9.00;;
10511;SDS011;5304;48.604;2.096;2023-06-14T04:28:48;9.70;;;8.70;;
10511;SDS011;5304;48.604;2.096;2023-06-14T04:31:32;13.10;;;8.87;;
10511;SDS011;5304;48.604;2.096;2023-06-14T04:34:17;11.33;;;8.83;;
10511;SDS011;5304;48.604;2.096;2023-06-14T04:37:01;11.40;;;8.57;;
10511;SDS011;5304;48.604;2.096;2023-06-14T04:39:46;12.23;;;9.33;;
10511;SDS011;5304;48.604;2.096;2023-06-14T04:42:31;10.23;;;9.23;;
10511;SDS011;5304;48.604;2.096;2023-06-14T04:45:16;11.03;;;8.80;;
10511;SDS011;5304;48.604;2.096;2023-06-14T04:48:00;15.73;;;9.53;;
10511;SDS011;5304;48.604;2.096;2023-06-14T04:50:45;12.60;;;9.00;;
10511;SDS011;5304;48.604;2.096;2023-06-14T04:53:30;9.57;;;8.57;;
10511;SDS011;5304;48.604;2.096;2023-06-14T04:56:15;12.03;;;8.80;;
10511;SDS011;5304;48.604;2.096;2023-06-14T04:59:00;11.23;;;9.27;;
10511;SDS011;5304;48.604;2.096;2023-06-14T05:01:45;12.07;;;9.77;;
10511;SDS011;5304;48.604;2.096;2023-06-14T05:04:31;10.07;;;8.63;;
10511;SDS011;5304;48.604;2.096;2023-06-14T05:07:16;12.30;;;8.30;;
10511;SDS011;5304;48.604;2.096;2023-06-14T05:10:01;12.13;;;8.83;;
10511;SDS011;5304;48.604;2.096;2023-06-14T05:12:45;12.57;;;7.90;;
10511;SDS011;5304;48.604;2.096;2023-06-14T05:15:31;15.27;;;9.10;;
10511;SDS011;5304;48.604;2.096;2023-06-14T05:18:15;14.00;;;9.00;;
10511;SDS011;5304;48.604;2.096;2023-06-14T05:21:00;12.90;;;8.27;;
10511;SDS011;5304;48.604;2.096;2023-06-14T05:23:45;11.67;;;9.40;;
10511;SDS011;5304;48.604;2.096;2023-06-14T05:26:29;10.53;;;9.17;;
10511;SDS011;5304;48.604;2.096;2023-06-14T05:29:14;10.57;;;9.47;;
10511;SDS011;5304;48.604;2.096;2023-06-14T05:31:58;15.60;;;9.33;;
10511;SDS011;5304;48.604;2.096;2023-06-14T05:34:43;13.30;;;9.40;;
10511;SDS011;5304;48.604;2.096;2023-06-14T05:37:28;14.53;;;8.93;;
10511;SDS011;5304;48.604;2.096;2023-06-14T05:40:12;13.33;;;8.73;;
10511;SDS011;5304;48.604;2.096;2023-06-14T05:42:57;13.23;;;8.60;;
10511;SDS011;5304;48.604;2.096;2023-06-14T05:45:41;11.73;;;8.67;;
10511;SDS011;5304;48.604;2.096;2023-06-14T05:48:26;14.27;;;8.87;;
10511;SDS011;5304;48.604;2.096;2023-06-14T05:51:10;9.53;;;8.50;;
10511;SDS011;5304;48.604;2.096;2023-06-14T05:53:55;14.13;;;9.07;;
10511;SDS011;5304;48.604;2.096;2023-06-14T05:56:39;17.20;;;9.50;;
10511;SDS011;5304;48.604;2.096;2023-06-14T05:59:24;14.20;;;10.27;;
10511;SDS011;5304;48.604;2.096;2023-06-14T06:02:08;17.93;;;10.40;;
10511;SDS011;5304;48.604;2.096;2023-06-14T06:04:53;23.17;;;10.03;;
10511;SDS011;5304;48.604;2.096;2023-06-14T06:07:38;13.90;;;9.23;;
10511;SDS011;5304;48.604;2.096;2023-06-14T06:10:23;15.03;;;9.30;;
10511;SDS011;5304;48.604;2.096;2023-06-14T06:13:08;15.20;;;9.77;;
10511;SDS011;5304;48.604;2.096;2023-06-14T06:15:52;18.97;;;9.43;;
10511;SDS011;5304;48.604;2.096;2023-06-14T06:18:37;21.67;;;9.87;;
10511;SDS011;5304;48.604;2.096;2023-06-14T06:21:22;31.63;;;10.20;;
10511;SDS011;5304;48.604;2.096;2023-06-14T06:24:06;32.53;;;9.37;;
10511;SDS011;5304;48.604;2.096;2023-06-14T06:26:51;20.47;;;10.20;;
10511;SDS011;5304;48.604;2.096;2023-06-14T06:29:36;31.00;;;10.40;;
10511;SDS011;5304;48.604;2.096;2023-06-14T06:32:21;24.37;;;9.40;;
10511;SDS011;5304;48.604;2.096;2023-06-14T06:35:05;28.10;;;9.73;;
10511;SDS011;5304;48.604;2.096;2023-06-14T06:37:52;24.77;;;9.23;;
10511;SDS011;5304;48.604;2.096;2023-06-14T06:40:36;15.97;;;9.43;;
10511;SDS011;5304;48.604;2.096;2023-06-14T06:43:21;19.80;;;9.50;;
10511;SDS011;5304;48.604;2.096;2023-06-14T06:46:05;11.27;;;8.10;;
10511;SDS011;5304;48.604;2.096;2023-06-14T06:48:50;17.60;;;7.95;;
10511;SDS011;5304;48.604;2.096;2023-06-14T06:51:35;10.85;;;7.35;;
10511;SDS011;5304;48.604;2.096;2023-06-14T06:54:23;13.48;;;7.45;;
10511;SDS011;5304;48.604;2.096;2023-06-14T06:57:07;14.02;;;7.68;;
10511;SDS011;5304;48.604;2.096;2023-06-14T06:59:52;12.55;;;7.55;;
10511;SDS011;5304;48.604;2.096;2023-06-14T07:02:36;8.57;;;7.47;;
10511;SDS011;5304;48.604;2.096;2023-06-14T07:05:21;11.88;;;7.32;;
10511;SDS011;5304;48.604;2.096;2023-06-14T07:08:05;12.27;;;7.68;;
10511;SDS011;5304;48.604;2.096;2023-06-14T07:10:50;12.23;;;6.53;;
10511;SDS011;5304;48.604;2.096;2023-06-14T07:13:34;11.50;;;6.40;;
10511;SDS011;5304;48.604;2.096;2023-06-14T07:16:19;9.35;;;6.78;;
10511;SDS011;5304;48.604;2.096;2023-06-14T07:19:04;12.15;;;6.65;;
10511;SDS011;5304;48.604;2.096;2023-06-14T07:21:48;17.42;;;6.95;;
10511;SDS011;5304;48.604;2.096;2023-06-14T07:24:33;9.70;;;6.55;;
10511;SDS011;5304;48.604;2.096;2023-06-14T07:27:19;27.95;;;7.47;;
10511;SDS011;5304;48.604;2.096;2023-06-14T07:30:04;11.50;;;6.30;;
10511;SDS011;5304;48.604;2.096;2023-06-14T07:32:48;13.70;;;6.68;;
10511;SDS011;5304;48.604;2.096;2023-06-14T07:35:34;12.35;;;6.78;;
10511;SDS011;5304;48.604;2.096;2023-06-14T07:38:18;8.68;;;6.22;;
10511;SDS011;5304;48.604;2.096;2023-06-14T07:41:03;20.02;;;6.35;;
10511;SDS011;5304;48.604;2.096;2023-06-14T07:43:47;9.00;;;6.32;;
10511;SDS011;5304;48.604;2.096;2023-06-14T07:46:32;6.93;;;6.22;;
10511;SDS011;5304;48.604;2.096;2023-06-14T07:49:18;9.57;;;6.13;;
10511;SDS011;5304;48.604;2.096;2023-06-14T07:52:02;13.07;;;6.72;;
10511;SDS011;5304;48.604;2.096;2023-06-14T07:54:48;26.95;;;7.50;;
10511;SDS011;5304;48.604;2.096;2023-06-14T07:57:33;12.77;;;6.07;;
10511;SDS011;5304;48.604;2.096;2023-06-14T08:00:17;11.57;;;6.28;;
10511;SDS011;5304;48.604;2.096;2023-06-14T08:03:03;9.40;;;5.55;;
10511;SDS011;5304;48.604;2.096;2023-06-14T08:05:48;6.75;;;5.80;;
10511;SDS011;5304;48.604;2.096;2023-06-14T08:08:32;8.40;;;6.40;;
10511;SDS011;5304;48.604;2.096;2023-06-14T08:11:16;7.57;;;5.88;;
10511;SDS011;5304;48.604;2.096;2023-06-14T08:14:01;7.38;;;5.63;;
10511;SDS011;5304;48.604;2.096;2023-06-14T08:16:45;8.45;;;6.32;;
10511;SDS011;5304;48.604;2.096;2023-06-14T08:19:29;8.00;;;5.80;;
10511;SDS011;5304;48.604;2.096;2023-06-14T08:22:14;6.88;;;5.95;;
10511;SDS011;5304;48.604;2.096;2023-06-14T08:25:00;9.25;;;5.72;;
10511;SDS011;5304;48.604;2.096;2023-06-14T08:27:45;8.10;;;5.90;;
10511;SDS011;5304;48.604;2.096;2023-06-14T08:30:29;7.35;;;5.82;;
10511;SDS011;5304;48.604;2.096;2023-06-14T08:33:13;11.68;;;6.28;;
10511;SDS011;5304;48.604;2.096;2023-06-14T08:35:58;6.45;;;5.88;;
10511;SDS011;5304;48.604;2.096;2023-06-14T08:38:42;6.40;;;5.80;;
10511;SDS011;5304;48.604;2.096;2023-06-14T08:41:26;6.55;;;5.00;;
10511;SDS011;5304;48.604;2.096;2023-06-14T08:44:12;6.15;;;5.55;;
10511;SDS011;5304;48.604;2.096;2023-06-14T08:46:59;7.50;;;5.82;;
10511;SDS011;5304;48.604;2.096;2023-06-14T08:49:45;8.20;;;5.55;;
10511;SDS011;5304;48.604;2.096;2023-06-14T08:52:32;5.70;;;5.10;;
10511;SDS011;5304;48.604;2.096;2023-06-14T08:55:24;8.70;;;4.95;;
10511;SDS011;5304;48.604;2.096;2023-06-14T08:58:11;6.93;;;4.88;;
10511;SDS011;5304;48.604;2.096;2023-06-14T09:00:58;7.80;;;5.40;;
10511;SDS011;5304;48.604;2.096;2023-06-14T09:03:47;6.72;;;4.82;;
10511;SDS011;5304;48.604;2.096;2023-06-14T09:06:32;6.50;;;5.00;;
10511;SDS011;5304;48.604;2.096;2023-06-14T09:09:16;6.38;;;5.22;;
10511;SDS011;5304;48.604;2.096;2023-06-14T09:12:01;7.05;;;5.13;;
10511;SDS011;5304;48.604;2.096;2023-06-14T09:14:45;6.35;;;5.10;;
10511;SDS011;5304;48.604;2.096;2023-06-14T09:17:30;7.63;;;5.03;;
10511;SDS011;5304;48.604;2.096;2023-06-14T09:20:16;5.10;;;4.70;;
10511;SDS011;5304;48.604;2.096;2023-06-14T09:23:04;10.50;;;5.22;;
10511;SDS011;5304;48.604;2.096;2023-06-14T09:25:49;5.28;;;4.78;;
10511;SDS011;5304;48.604;2.096;2023-06-14T09:28:34;6.80;;;5.57;;
10511;SDS011;5304;48.604;2.096;2023-06-14T09:31:19;6.68;;;4.93;;
10511;SDS011;5304;48.604;2.096;2023-06-14T09:34:04;7.13;;;5.38;;
10511;SDS011;5304;48.604;2.096;2023-06-14T09:36:49;5.63;;;5.03;;
10511;SDS011;5304;48.604;2.096;2023-06-14T09:39:34;6.50;;;5.47;;
10511;SDS011;5304;48.604;2.096;2023-06-14T09:42:19;5.65;;;4.90;;
10511;SDS011;5304;48.604;2.096;2023-06-14T09:45:03;9.40;;;5.15;;
10511;SDS011;5304;48.604;2.096;2023-06-14T09:47:49;5.25;;;4.75;;
10511;SDS011;5304;48.604;2.096;2023-06-14T09:50:34;6.47;;;4.95;;
10511;SDS011;5304;48.604;2.096;2023-06-14T09:53:20;6.15;;;5.15;;
10511;SDS011;5304;48.604;2.096;2023-06-14T09:56:06;6.15;;;5.55;;
10511;SDS011;5304;48.604;2.096;2023-06-14T09:58:53;5.60;;;5.00;;
10511;SDS011;5304;48.604;2.096;2023-06-14T10:01:42;7.10;;;4.65;;
10511;SDS011;5304;48.604;2.096;2023-06-14T10:04:27;6.57;;;5.13;;
10511;SDS011;5304;48.604;2.096;2023-06-14T10:07:15;6.53;;;5.28;;
10511;SDS011;5304;48.604;2.096;2023-06-14T10:10:03;5.97;;;5.38;;
10511;SDS011;5304;48.604;2.096;2023-06-14T10:12:48;8.18;;;4.78;;
10511;SDS011;5304;48.604;2.096;2023-06-14T10:15:46;6.88;;;5.50;;
10511;SDS011;5304;48.604;2.096;2023-06-14T10:18:47;6.97;;;4.85;;
10511;SDS011;5304;48.604;2.096;2023-06-14T10:21:55;6.40;;;4.80;;
10511;SDS011;5304;48.604;2.096;2023-06-14T10:24:46;8.43;;;5.40;;
10511;SDS011;5304;48.604;2.096;2023-06-14T10:27:32;5.80;;;5.07;;
10511;SDS011;5304;48.604;2.096;2023-06-14T10:30:16;6.00;;;5.40;;
10511;SDS011;5304;48.604;2.096;2023-06-14T10:33:06;6.60;;;4.75;;
10511;SDS011;5304;48.604;2.096;2023-06-14T10:36:01;7.10;;;5.28;;
10511;SDS011;5304;48.604;2.096;2023-06-14T10:39:05;6.25;;;5.07;;
10511;SDS011;5304;48.604;2.096;2023-06-14T10:42:01;5.70;;;5.10;;
10511;SDS011;5304;48.604;2.096;2023-06-14T10:44:54;6.45;;;5.57;;
10511;SDS011;5304;48.604;2.096;2023-06-14T10:47:39;6.00;;;5.40;;
10511;SDS011;5304;48.604;2.096;2023-06-14T10:50:29;6.38;;;5.43;;
10511;SDS011;5304;48.604;2.096;2023-06-14T10:53:23;7.00;;;5.60;;
10511;SDS011;5304;48.604;2.096;2023-06-14T10:56:08;6.88;;;5.50;;
10511;SDS011;5304;48.604;2.096;2023-06-14T10:58:55;9.63;;;6.15;;
10511;SDS011;5304;48.604;2.096;2023-06-14T11:01:57;6.47;;;5.10;;
10511;SDS011;5304;48.604;2.096;2023-06-14T11:04:52;7.18;;;5.57;;
10511;SDS011;5304;48.604;2.096;2023-06-14T11:10:59;6.00;;;5.40;;
10511;SDS011;5304;48.604;2.096;2023-06-14T11:13:44;7.90;;;5.82;;
10511;SDS011;5304;48.604;2.096;2023-06-14T11:16:29;6.45;;;5.80;;
10511;SDS011;5304;48.604;2.096;2023-06-14T11:19:16;7.03;;;5.40;;
10511;SDS011;5304;48.604;2.096;2023-06-14T11:22:01;7.20;;;5.35;;
10511;SDS011;5304;48.604;2.096;2023-06-14T11:24:45;6.85;;;5.18;;
10511;SDS011;5304;48.604;2.096;2023-06-14T11:27:32;9.73;;;6.28;;
10511;SDS011;5304;48.604;2.096;2023-06-14T11:30:17;6.60;;;5.97;;
10511;SDS011;5304;48.604;2.096;2023-06-14T11:33:01;10.65;;;5.85;;
10511;SDS011;5304;48.604;2.096;2023-06-14T11:35:46;8.40;;;5.68;;
10511;SDS011;5304;48.604;2.096;2023-06-14T11:38:34;7.57;;;5.57;;
10511;SDS011;5304;48.604;2.096;2023-06-14T11:41:19;6.78;;;6.13;;
10511;SDS011;5304;48.604;2.096;2023-06-14T11:44:09;6.70;;;6.10;;
10511;SDS011;5304;48.604;2.096;2023-06-14T11:46:53;6.45;;;5.28;;
10511;SDS011;5304;48.604;2.096;2023-06-14T11:49:38;6.60;;;5.85;;
10511;SDS011;5304;48.604;2.096;2023-06-14T11:52:22;9.27;;;6.10;;
10511;SDS011;5304;48.604;2.096;2023-06-14T11:55:07;8.32;;;5.50;;
10511;SDS011;5304;48.604;2.096;2023-06-14T11:57:55;6.65;;;5.85;;
10511;SDS011;5304;48.604;2.096;2023-06-14T12:00:39;6.05;;;5.55;;
10511;SDS011;5304;48.604;2.096;2023-06-14T12:03:27;6.22;;;5.55;;
10511;SDS011;5304;48.604;2.096;2023-06-14T12:06:12;6.78;;;5.72;;
10511;SDS011;5304;48.604;2.096;2023-06-14T12:08:56;7.47;;;6.00;;
10511;SDS011;5304;48.604;2.096;2023-06-14T12:11:40;6.38;;;5.88;;
10511;SDS011;5304;48.604;2.096;2023-06-14T12:14:28;8.38;;;5.95;;
10511;SDS011;5304;48.604;2.096;2023-06-14T12:17:16;7.90;;;5.65;;
10511;SDS011;5304;48.604;2.096;2023-06-14T12:20:19;6.00;;;5.43;;
10511;SDS011;5304;48.604;2.096;2023-06-14T12:23:05;9.43;;;5.88;;
10511;SDS011;5304;48.604;2.096;2023-06-14T12:25:50;8.63;;;5.97;;
10511;SDS011;5304;48.604;2.096;2023-06-14T12:28:35;9.00;;;6.10;;
10511;SDS011;5304;48.604;2.096;2023-06-14T12:31:20;10.98;;;6.15;;
10511;SDS011;5304;48.604;2.096;2023-06-14T12:34:04;9.82;;;5.60;;
10511;SDS011;5304;48.604;2.096;2023-06-14T12:36:49;6.28;;;5.68;;
10511;SDS011;5304;48.604;2.096;2023-06-14T12:39:34;8.45;;;5.80;;
10511;SDS011;5304;48.604;2.096;2023-06-14T12:42:19;7.82;;;6.10;;
10511;SDS011;5304;48.604;2.096;2023-06-14T12:45:03;9.15;;;5.93;;
10511;SDS011;5304;48.604;2.096;2023-06-14T12:47:49;6.30;;;5.70;;
10511;SDS011;5304;48.604;2.096;2023-06-14T12:50:33;7.95;;;5.57;;
10511;SDS011;5304;48.604;2.096;2023-06-14T12:53:18;10.05;;;5.38;;
10511;SDS011;5304;48.604;2.096;2023-06-14T12:56:02;8.43;;;6.07;;
10511;SDS011;5304;48.604;2.096;2023-06-14T12:58:46;7.68;;;5.95;;
10511;SDS011;5304;48.604;2.096;2023-06-14T13:01:31;6.38;;;5.50;;
10511;SDS011;5304;48.604;2.096;2023-06-14T13:04:16;7.78;;;6.10;;
10511;SDS011;5304;48.604;2.096;2023-06-14T13:07:00;6.90;;;5.47;;
10511;SDS011;5304;48.604;2.096;2023-06-14T13:09:45;6.93;;;5.78;;
10511;SDS011;5304;48.604;2.096;2023-06-14T13:12:29;6.97;;;5.75;;
10511;SDS011;5304;48.604;2.096;2023-06-14T13:15:13;6.50;;;5.90;;
10511;SDS011;5304;48.604;2.096;2023-06-14T13:17:58;6.82;;;6.10;;
10511;SDS011;5304;48.604;2.096;2023-06-14T13:20:43;6.03;;;5.43;;
10511;SDS011;5304;48.604;2.096;2023-06-14T13:23:29;10.13;;;6.00;;
10511;SDS011;5304;48.604;2.096;2023-06-14T13:26:14;12.43;;;5.88;;
10511;SDS011;5304;48.604;2.096;2023-06-14T13:28:58;6.03;;;5.43;;
10511;SDS011;5304;48.604;2.096;2023-06-14T13:31:43;9.35;;;6.20;;
10511;SDS011;5304;48.604;2.096;2023-06-14T13:34:29;8.15;;;6.05;;
10511;SDS011;5304;48.604;2.096;2023-06-14T13:37:13;7.32;;;5.93;;
10511;SDS011;5304;48.604;2.096;2023-06-14T13:39:58;11.55;;;5.90;;
10511;SDS011;5304;48.604;2.096;2023-06-14T13:42:42;6.75;;;6.15;;
10511;SDS011;5304;48.604;2.096;2023-06-14T13:45:27;6.38;;;5.78;;
10511;SDS011;5304;48.604;2.096;2023-06-14T13:48:11;8.02;;;6.57;;
10511;SDS011;5304;48.604;2.096;2023-06-14T13:50:56;6.28;;;5.68;;
10511;SDS011;5304;48.604;2.096;2023-06-14T13:53:45;6.40;;;5.38;;
10511;SDS011;5304;48.604;2.096;2023-06-14T13:56:31;6.32;;;5.72;;
10511;SDS011;5304;48.604;2.096;2023-06-14T13:59:15;6.55;;;5.93;;
10511;SDS011;5304;48.604;2.096;2023-06-14T14:01:59;6.60;;;6.00;;
10511;SDS011;5304;48.604;2.096;2023-06-14T14:04:44;8.00;;;6.03;;
10511;SDS011;5304;48.604;2.096;2023-06-14T14:07:35;7.28;;;5.57;;
10511;SDS011;5304;48.604;2.096;2023-06-14T14:10:20;10.13;;;6.47;;
10511;SDS011;5304;48.604;2.096;2023-06-14T14:13:05;7.10;;;6.20;;
10511;SDS011;5304;48.604;2.096;2023-06-14T14:15:49;7.28;;;6.30;;
10511;SDS011;5304;48.604;2.096;2023-06-14T14:18:34;6.97;;;6.10;;
10511;SDS011;5304;48.604;2.096;2023-06-14T14:21:18;8.30;;;6.13;;
10511;SDS011;5304;48.604;2.096;2023-06-14T14:24:03;6.68;;;5.97;;
10511;SDS011;5304;48.604;2.096;2023-06-14T14:26:47;6.28;;;5.78;;
10511;SDS011;5304;48.604;2.096;2023-06-14T14:29:33;10.15;;;6.03;;
10511;SDS011;5304;48.604;2.096;2023-06-14T14:32:17;6.45;;;5.80;;
10511;SDS011;5304;48.604;2.096;2023-06-14T14:35:01;11.20;;;6.38;;
10511;SDS011;5304;48.604;2.096;2023-06-14T14:37:46;7.78;;;6.28;;
10511;SDS011;5304;48.604;2.096;2023-06-14T14:40:30;6.95;;;6.10;;
10511;SDS011;5304;48.604;2.096;2023-06-14T14:43:15;8.45;;;6.05;;
10511;SDS011;5304;48.604;2.096;2023-06-14T14:45:59;7.03;;;5.57;;
10511;SDS011;5304;48.604;2.096;2023-06-14T14:48:44;7.28;;;6.25;;
10511;SDS011;5304;48.604;2.096;2023-06-14T14:51:28;6.70;;;5.72;;
10511;SDS011;5304;48.604;2.096;2023-06-14T14:54:13;7.07;;;6.38;;
10511;SDS011;5304;48.604;2.096;2023-06-14T14:56:57;6.50;;;5.90;;
10511;SDS011;5304;48.604;2.096;2023-06-14T14:59:42;8.15;;;5.95;;
10511;SDS011;5304;48.604;2.096;2023-06-14T15:02:26;6.85;;;6.15;;
10511;SDS011;5304;48.604;2.096;2023-06-14T15:05:11;8.35;;;6.05;;
10511;SDS011;5304;48.604;2.096;2023-06-14T15:07:55;7.32;;;5.80;;
10511;SDS011;5304;48.604;2.096;2023-06-14T15:10:40;6.45;;;5.85;;
10511;SDS011;5304;48.604;2.096;2023-06-14T15:13:25;6.50;;;5.90;;
10511;SDS011;5304;48.604;2.096;2023-06-14T15:16:09;6.10;;;5.57;;
10511;SDS011;5304;48.604;2.096;2023-06-14T15:18:53;6.68;;;6.00;;
10511;SDS011;5304;48.604;2.096;2023-06-14T15:21:38;7.47;;;6.47;;
10511;SDS011;5304;48.604;2.096;2023-06-14T15:24:22;6.45;;;5.90;;
10511;SDS011;5304;48.604;2.096;2023-06-14T15:27:07;8.18;;;6.00;;
10511;SDS011;5304;48.604;2.096;2023-06-14T15:29:51;6.28;;;5.68;;
10511;SDS011;5304;48.604;2.096;2023-06-14T15:32:37;6.72;;;6.13;;
10511;SDS011;5304;48.604;2.096;2023-06-14T15:35:21;6.43;;;5.82;;
10511;SDS011;5304;48.604;2.096;2023-06-14T15:38:06;6.57;;;5.93;;
10511;SDS011;5304;48.604;2.096;2023-06-14T15:40:50;8.35;;;6.03;;
10511;SDS011;5304;48.604;2.096;2023-06-14T15:43:34;7.57;;;5.85;;
10511;SDS011;5304;48.604;2.096;2023-06-14T15:46:20;7.57;;;6.88;;
10511;SDS011;5304;48.604;2.096;2023-06-14T15:49:09;6.07;;;5.47;;
10511;SDS011;5304;48.604;2.096;2023-06-14T15:51:54;6.72;;;5.88;;
10511;SDS011;5304;48.604;2.096;2023-06-14T15:54:39;9.85;;;5.88;;
10511;SDS011;5304;48.604;2.096;2023-06-14T15:57:23;39.13;;;7.93;;
10511;SDS011;5304;48.604;2.096;2023-06-14T16:00:08;13.13;;;6.57;;
10511;SDS011;5304;48.604;2.096;2023-06-14T16:02:53;10.43;;;5.97;;
10511;SDS011;5304;48.604;2.096;2023-06-14T16:05:37;5.90;;;5.32;;
10511;SDS011;5304;48.604;2.096;2023-06-14T16:08:21;8.55;;;6.05;;
10511;SDS011;5304;48.604;2.096;2023-06-14T16:11:06;10.55;;;6.65;;
10511;SDS011;5304;48.604;2.096;2023-06-14T16:13:51;7.00;;;5.88;;
10511;SDS011;5304;48.604;2.096;2023-06-14T16:16:35;7.28;;;6.60;;
10511;SDS011;5304;48.604;2.096;2023-06-14T16:19:20;6.53;;;5.93;;
10511;SDS011;5304;48.604;2.096;2023-06-14T16:22:05;6.03;;;5.50;;
10511;SDS011;5304;48.604;2.096;2023-06-14T16:24:49;7.28;;;6.18;;
10511;SDS011;5304;48.604;2.096;2023-06-14T16:27:34;8.90;;;6.65;;
10511;SDS011;5304;48.604;2.096;2023-06-14T16:30:18;7.22;;;6.53;;
10511;SDS011;5304;48.604;2.096;2023-06-14T16:33:03;7.63;;;5.90;;
10511;SDS011;5304;48.604;2.096;2023-06-14T16:35:47;9.20;;;5.57;;
10511;SDS011;5304;48.604;2.096;2023-06-14T16:38:32;6.90;;;6.10;;
10511;SDS011;5304;48.604;2.096;2023-06-14T16:41:16;8.60;;;6.78;;
10511;SDS011;5304;48.604;2.096;2023-06-14T16:44:00;9.27;;;5.78;;
10511;SDS011;5304;48.604;2.096;2023-06-14T16:46:47;6.93;;;5.95;;
10511;SDS011;5304;48.604;2.096;2023-06-14T16:49:32;6.47;;;5.88;;
10511;SDS011;5304;48.604;2.096;2023-06-14T16:52:16;7.13;;;5.95;;
10511;SDS011;5304;48.604;2.096;2023-06-14T16:55:00;9.07;;;5.90;;
10511;SDS011;5304;48.604;2.096;2023-06-14T16:57:45;6.05;;;5.55;;